Time;durP1;ratioP1;P1;durP2;ratioP2;P2;SDS_P1;SDS_P2;PMS_P1;PMS_P2;Temp;Humidity;BMP_temperature;BMP_pressure;BME280_temperature;BME280_humidity;BME280_pressure;Samples;Min_cycle;Max_cycle;Signal;HPM_P1;HPM_P2
2022/01/27 00:05:11;;;;;;;18.75;10.95;;;6.60;99.90;;;;;;5013279;28;20108;-66
2022/01/27 00:07:38;;;;;;;15.40;10.20;;;6.50;99.90;;;;;;5012862;28;20053;-66
2022/01/27 00:12:32;;;;;;;16.45;10.43;;;6.50;99.90;;;;;;5010603;28;20497;-66
2022/01/27 00:15:10;;;;;;;18.88;11.10;;;6.50;99.90;;;;;;5011918;28;20050;-66
2022/01/27 00:17:45;;;;;;;16.55;10.80;;;6.50;99.90;;;;;;5001972;28;20057;-65
2022/01/27 00:20:12;;;;;;;15.15;9.95;;;6.60;99.90;;;;;;5011808;28;20064;-66
2022/01/27 00:22:40;;;;;;;15.10;10.10;;;6.60;99.90;;;;;;5005401;28;20065;-67
2022/01/27 00:25:07;;;;;;;22.92;11.45;;;6.60;99.90;;;;;;4986546;28;20072;-69
2022/01/27 00:27:34;;;;;;;18.27;11.38;;;6.60;99.90;;;;;;5002616;28;20050;-66
2022/01/27 00:30:03;;;;;;;15.27;10.10;;;6.60;99.90;;;;;;4997554;28;20493;-66
2022/01/27 00:32:31;;;;;;;13.88;9.35;;;6.60;99.90;;;;;;5006203;28;20050;-67
2022/01/27 00:34:58;;;;;;;16.35;10.68;;;6.60;99.90;;;;;;4999365;28;20041;-66
2022/01/27 00:37:26;;;;;;;17.08;9.75;;;6.60;99.90;;;;;;5016325;28;20053;-65
2022/01/27 00:39:53;;;;;;;15.05;10.50;;;6.60;99.90;;;;;;5011035;28;20374;-67
2022/01/27 00:42:20;;;;;;;18.98;10.82;;;6.60;99.90;;;;;;4994914;28;20053;-65
2022/01/27 00:44:47;;;;;;;15.98;9.63;;;6.60;99.90;;;;;;5012471;28;20511;-65
2022/01/27 00:47:14;;;;;;;18.45;10.90;;;6.60;99.90;;;;;;5012392;28;20081;-70
2022/01/27 00:49:41;;;;;;;16.17;10.00;;;6.70;99.90;;;;;;5011307;28;20046;-66
2022/01/27 00:52:14;;;;;;;19.67;9.50;;;6.70;99.90;;;;;;4999668;28;20081;-66
2022/01/27 00:54:42;;;;;;;17.55;9.88;;;6.70;99.90;;;;;;5011555;28;20141;-66
2022/01/27 00:58:03;;;;;;;36.35;11.55;;;6.60;99.90;;;;;;5010469;28;20050;-66
2022/01/27 01:00:00;;;;;;;16.60;11.48;;;6.70;99.90;;;;;;4999496;28;20129;-66
2022/01/27 01:02:46;;;;;;;21.10;11.00;;;6.70;99.90;;;;;;5011144;28;20068;-66
2022/01/27 01:08:13;;;;;;;19.05;11.40;;;6.70;99.90;;;;;;4994549;28;20081;-66
2022/01/27 01:16:23;;;;;;;18.65;11.55;;;6.60;99.90;;;;;;5011134;28;20060;-65
2022/01/27 01:19:07;;;;;;;19.88;11.13;;;6.60;99.90;;;;;;5010509;28;20477;-65
2022/01/27 01:29:54;;;;;;;16.95;11.18;;;6.60;99.90;;;;;;4995010;28;20056;-66
2022/01/27 01:32:42;;;;;;;18.88;10.48;;;6.60;99.90;;;;;;5011498;28;20050;-66
2022/01/27 01:35:10;;;;;;;19.45;11.70;;;6.60;99.90;;;;;;4994948;28;20486;-66
2022/01/27 01:37:40;;;;;;;17.67;11.00;;;6.60;99.90;;;;;;4992498;28;20057;-66
2022/01/27 01:40:08;;;;;;;;;;;6.60;99.90;;;;;;5000713;28;20046;-66
2022/01/27 01:42:35;;;;;;;23.92;11.80;;;6.60;99.90;;;;;;5026410;28;19925;-66
2022/01/27 01:45:07;;;;;;;17.40;9.75;;;6.60;99.90;;;;;;5014341;28;20042;-65
2022/01/27 01:47:34;;;;;;;20.85;11.07;;;6.60;99.90;;;;;;5009661;28;20049;-65
2022/01/27 01:50:01;;;;;;;17.58;10.93;;;6.60;99.90;;;;;;5007218;28;20046;-66
2022/01/27 01:52:28;;;;;;;14.85;10.05;;;6.60;99.90;;;;;;5014552;28;20060;-65
2022/01/27 01:54:55;;;;;;;18.25;11.38;;;6.60;99.90;;;;;;5013744;28;20420;-66
2022/01/27 01:57:22;;;;;;;15.80;9.98;;;6.60;99.90;;;;;;5014126;28;20524;-66
2022/01/27 01:59:49;;;;;;;17.00;9.85;;;6.60;99.90;;;;;;5014002;28;20393;-66
2022/01/27 02:02:16;;;;;;;25.33;12.48;;;6.60;99.90;;;;;;5010712;28;20057;-67
2022/01/27 02:04:43;;;;;;;18.63;11.70;;;6.60;99.90;;;;;;5014970;28;20042;-65
2022/01/27 02:18:28;;;;;;;21.23;11.02;;;6.50;99.90;;;;;;4976294;28;20519;-66
2022/01/27 02:20:55;;;;;;;15.57;10.05;;;6.50;99.90;;;;;;4972901;28;20081;-71
2022/01/27 02:23:22;;;;;;;15.55;10.10;;;6.60;99.90;;;;;;4983350;28;20073;-66
2022/01/27 02:25:49;;;;;;;15.32;9.27;;;6.60;99.90;;;;;;4994255;28;20046;-66
2022/01/27 02:28:15;;;;;;;17.25;11.50;;;6.60;99.90;;;;;;5003309;28;20057;-66
2022/01/27 02:30:42;;;;;;;20.65;11.15;;;6.70;99.90;;;;;;5014551;28;20050;-66
2022/01/27 02:33:09;;;;;;;15.27;9.38;;;6.70;99.90;;;;;;5009183;28;20046;-66
2022/01/27 02:35:36;;;;;;;16.20;9.73;;;6.80;99.90;;;;;;4977878;28;20050;-68
2022/01/27 02:38:05;;;;;;;15.00;9.40;;;6.90;99.90;;;;;;4993743;28;20070;-66
2022/01/27 02:40:42;;;;;;;20.40;10.17;;;6.90;99.90;;;;;;4996007;28;20453;-66
2022/01/27 02:43:09;;;;;;;14.10;9.80;;;7.00;99.90;;;;;;4994039;28;20090;-66
2022/01/27 02:46:21;;;;;;;131.02;108.65;;;7.10;99.90;;;;;;5013231;28;20413;-68
2022/01/27 02:48:48;;;;;;;95.13;59.95;;;7.20;99.90;;;;;;4984337;28;20625;-66
2022/01/27 02:51:15;;;;;;;26.63;18.10;;;7.20;99.90;;;;;;4972146;28;20470;-67
2022/01/27 02:53:42;;;;;;;17.30;11.35;;;7.20;99.90;;;;;;4981943;28;20052;-66
2022/01/27 02:56:09;;;;;;;15.68;9.50;;;7.10;99.90;;;;;;5016127;28;20382;-67
2022/01/27 02:58:36;;;;;;;13.88;9.40;;;7.10;99.90;;;;;;5000436;28;20057;-66
2022/01/27 03:01:04;;;;;;;12.75;7.63;;;7.10;99.90;;;;;;5023563;28;20427;-66
2022/01/27 03:03:31;;;;;;;14.77;9.35;;;7.00;99.90;;;;;;5021086;28;20052;-66
2022/01/27 03:05:58;;;;;;;14.95;8.07;;;7.00;99.90;;;;;;5016097;28;20049;-66
2022/01/27 03:08:25;;;;;;;16.67;9.75;;;7.00;99.90;;;;;;5035095;28;20051;-75
2022/01/27 03:10:57;;;;;;;15.00;8.25;;;7.00;99.90;;;;;;5016266;28;20092;-67
2022/01/27 03:13:24;;;;;;;14.43;9.48;;;7.10;99.90;;;;;;5016320;28;20083;-66
2022/01/27 03:15:51;;;;;;;16.65;9.55;;;7.10;99.90;;;;;;5045620;28;20052;-67
2022/01/27 03:18:18;;;;;;;14.75;8.00;;;7.10;99.90;;;;;;5014752;28;20068;-69
2022/01/27 03:20:45;;;;;;;14.82;8.25;;;7.20;99.90;;;;;;5037714;28;20064;-74
2022/01/27 03:23:12;;;;;;;18.27;7.90;;;7.20;99.90;;;;;;5027840;28;20132;-66
2022/01/27 03:25:40;;;;;;;11.80;7.88;;;7.30;99.90;;;;;;5024272;28;20125;-68
2022/01/27 03:28:09;;;;;;;12.65;9.13;;;7.30;99.90;;;;;;5012731;28;20052;-67
2022/01/27 03:30:36;;;;;;;;;;;7.40;99.90;;;;;;5032036;28;20413;-66
2022/01/27 03:33:03;;;;;;;10.40;7.00;;;7.40;99.90;;;;;;5033286;28;19928;-67
2022/01/27 03:35:30;;;;;;;14.77;8.80;;;7.40;99.90;;;;;;5033242;28;20136;-66
2022/01/27 03:37:57;;;;;;;15.23;8.38;;;7.40;99.90;;;;;;5031826;28;20060;-66
2022/01/27 03:40:24;;;;;;;15.20;7.93;;;7.40;99.90;;;;;;5015280;28;20077;-67
2022/01/27 03:43:03;;;;;;;11.55;7.70;;;7.50;99.90;;;;;;5035614;28;20119;-68
2022/01/27 03:45:30;;;;;;;16.23;8.65;;;7.50;99.90;;;;;;5025089;28;20060;-67
2022/01/27 03:47:57;;;;;;;12.57;7.57;;;7.50;99.90;;;;;;5016054;28;20041;-66
2022/01/27 03:50:23;;;;;;;12.45;7.85;;;7.60;99.90;;;;;;5046154;28;20041;-67
2022/01/27 03:52:50;;;;;;;15.55;7.65;;;7.60;99.90;;;;;;5014578;28;20124;-66
2022/01/27 03:55:17;;;;;;;9.88;7.18;;;7.60;99.90;;;;;;5033012;28;20045;-66
2022/01/27 03:57:44;;;;;;;9.77;7.03;;;7.60;99.90;;;;;;5032755;28;20056;-68
2022/01/27 04:00:12;;;;;;;12.30;8.00;;;7.70;99.90;;;;;;5015022;28;20481;-67
2022/01/27 04:02:50;;;;;;;11.50;7.63;;;7.70;99.90;;;;;;5028480;28;20046;-66
2022/01/27 04:05:19;;;;;;;11.85;7.60;;;7.70;99.90;;;;;;5030307;28;20149;-66
2022/01/27 04:07:46;;;;;;;9.48;6.63;;;7.70;99.90;;;;;;5029949;28;20057;-67
2022/01/27 04:10:13;;;;;;;11.80;7.20;;;7.70;99.90;;;;;;5025342;28;20049;-66
2022/01/27 04:12:40;;;;;;;10.13;7.15;;;7.70;99.90;;;;;;4998886;28;20050;-67
2022/01/27 04:15:08;;;;;;;12.77;6.10;;;7.70;99.90;;;;;;5014551;28;20055;-67
2022/01/27 04:17:35;;;;;;;12.02;6.88;;;7.80;99.90;;;;;;5015302;28;20049;-66
2022/01/27 04:20:02;;;;;;;12.60;6.97;;;7.80;99.90;;;;;;5032020;28;20056;-67
2022/01/27 04:22:29;;;;;;;12.32;7.43;;;7.80;99.90;;;;;;5014370;28;20053;-67
2022/01/27 04:24:56;;;;;;;13.13;7.10;;;7.80;99.90;;;;;;5014419;28;20049;-68
2022/01/27 04:27:29;;;;;;;8.90;6.57;;;7.80;99.90;;;;;;5032696;28;20052;-67
2022/01/27 04:29:56;;;;;;;11.23;6.68;;;7.80;99.90;;;;;;5031800;28;20144;-66
2022/01/27 04:32:29;;;;;;;9.73;6.45;;;7.90;99.90;;;;;;4998923;28;20049;-66
2022/01/27 04:35:02;;;;;;;11.40;6.75;;;7.90;99.90;;;;;;5015734;28;20045;-66
2022/01/27 04:37:32;;;;;;;9.25;5.82;;;7.90;99.90;;;;;;5015164;28;20139;-66
2022/01/27 04:40:07;;;;;;;6.88;5.63;;;7.90;99.90;;;;;;5023136;28;20499;-66
2022/01/27 04:43:04;;;;;;;9.98;6.38;;;7.90;99.90;;;;;;5016132;28;20065;-67
2022/01/27 04:45:27;;;;;;;8.65;5.95;;;7.90;99.90;;;;;;5031033;28;20050;-66
2022/01/27 04:48:04;;;;;;;9.95;6.30;;;8.00;99.90;;;;;;5016180;28;20045;-67
2022/01/27 04:50:31;;;;;;;12.05;6.55;;;8.00;99.90;;;;;;5044544;28;20442;-67
2022/01/27 04:53:02;;;;;;;12.07;6.40;;;8.00;99.90;;;;;;5032758;28;20472;-68
2022/01/27 04:55:29;;;;;;;18.23;8.02;;;8.00;99.90;;;;;;5042865;28;20060;-67
2022/01/27 04:58:08;;;;;;;9.10;6.43;;;8.00;99.90;;;;;;5049244;28;20041;-67
2022/01/27 05:00:35;;;;;;;11.52;6.55;;;8.00;99.90;;;;;;5031471;28;20132;-67
2022/01/27 05:03:11;;;;;;;7.95;5.15;;;8.10;99.90;;;;;;5024672;28;20554;-66
2022/01/27 05:05:39;;;;;;;10.82;5.28;;;8.10;99.90;;;;;;5019557;28;20064;-66
2022/01/27 05:08:10;;;;;;;9.27;5.40;;;8.10;99.90;;;;;;5032487;28;20403;-67
2022/01/27 05:10:37;;;;;;;10.45;5.40;;;8.10;99.90;;;;;;5014173;28;20057;-67
2022/01/27 05:13:11;;;;;;;14.40;6.03;;;8.10;99.90;;;;;;5030743;28;20045;-67
2022/01/27 05:15:43;;;;;;;11.93;6.63;;;8.10;99.90;;;;;;5051504;28;20045;-66
2022/01/27 05:18:15;;;;;;;8.65;5.50;;;8.10;99.90;;;;;;5046065;28;20058;-67
2022/01/27 05:20:42;;;;;;;9.15;5.55;;;8.10;99.90;;;;;;5035585;28;20057;-66
2022/01/27 05:23:10;;;;;;;8.20;5.20;;;8.10;99.90;;;;;;5025665;28;20041;-66
2022/01/27 05:25:37;;;;;;;8.57;5.20;;;8.10;99.90;;;;;;5042569;28;20129;-67
2022/01/27 05:28:06;;;;;;;9.15;5.97;;;8.20;99.90;;;;;;5022607;28;20045;-67
2022/01/27 05:30:34;;;;;;;9.98;5.13;;;8.10;99.90;;;;;;5025206;28;20046;-67
2022/01/27 05:33:01;;;;;;;12.63;4.80;;;8.20;99.90;;;;;;5035716;28;20132;-67
2022/01/27 05:35:28;;;;;;;12.57;6.28;;;8.20;99.90;;;;;;5015541;28;20057;-66
2022/01/27 05:37:55;;;;;;;7.45;5.03;;;8.20;99.90;;;;;;5001230;28;20064;-66
2022/01/27 05:40:22;;;;;;;15.05;5.28;;;8.20;99.90;;;;;;5034126;28;20481;-67
2022/01/27 05:42:49;;;;;;;16.70;5.88;;;8.20;99.90;;;;;;5034421;28;20060;-67
2022/01/27 05:45:15;;;;;;;12.00;4.90;;;8.20;99.90;;;;;;5017886;28;20051;-67
2022/01/27 05:47:42;;;;;;;7.63;5.22;;;8.20;99.90;;;;;;5038325;28;20077;-68
2022/01/27 05:50:09;;;;;;;9.05;5.28;;;8.20;99.90;;;;;;5042577;28;20053;-67
2022/01/27 05:52:36;;;;;;;6.93;5.13;;;8.30;99.90;;;;;;5026964;28;20556;-67
2022/01/27 05:55:04;;;;;;;11.07;5.30;;;8.30;99.90;;;;;;5003508;28;20049;-67
2022/01/27 05:57:32;;;;;;;10.45;5.15;;;8.20;99.90;;;;;;5032347;28;20489;-68
2022/01/27 05:59:59;;;;;;;13.20;6.28;;;8.30;99.90;;;;;;5033843;28;20046;-67
2022/01/27 06:02:26;;;;;;;11.38;5.18;;;8.20;99.90;;;;;;5012039;28;20049;-67
2022/01/27 06:04:53;;;;;;;8.48;5.25;;;8.20;99.90;;;;;;5042443;28;20051;-67
2022/01/27 06:07:20;;;;;;;8.50;5.40;;;8.20;99.90;;;;;;5003488;28;20141;-67
2022/01/27 06:09:47;;;;;;;10.27;5.30;;;8.30;99.90;;;;;;5034014;28;20053;-67
2022/01/27 06:12:13;;;;;;;12.43;5.68;;;8.30;99.90;;;;;;5018740;28;20041;-67
2022/01/27 06:14:40;;;;;;;9.05;5.20;;;8.30;99.90;;;;;;5035814;28;20446;-67
2022/01/27 06:17:07;;;;;;;9.32;5.45;;;8.30;99.90;;;;;;5033936;28;20051;-67
2022/01/27 06:19:34;;;;;;;9.38;5.22;;;8.30;99.90;;;;;;5032469;28;20041;-67
2022/01/27 06:22:08;;;;;;;10.05;5.75;;;8.30;99.90;;;;;;5038485;28;20049;-67
2022/01/27 06:24:35;;;;;;;7.72;5.40;;;8.30;99.90;;;;;;5051637;28;20133;-67
2022/01/27 06:27:02;;;;;;;8.13;5.22;;;8.30;99.90;;;;;;5033618;28;20407;-69
2022/01/27 06:29:29;;;;;;;7.90;4.20;;;8.30;99.90;;;;;;5033480;28;20055;-68
2022/01/27 06:31:56;;;;;;;8.15;4.60;;;8.30;99.90;;;;;;5052450;28;20053;-67
2022/01/27 06:34:23;;;;;;;11.30;5.72;;;8.40;99.90;;;;;;5033656;28;20049;-67
2022/01/27 06:36:51;;;;;;;10.75;5.18;;;8.30;99.90;;;;;;5017633;28;20048;-67
2022/01/27 06:39:18;;;;;;;12.73;5.10;;;8.40;99.90;;;;;;5026446;28;20464;-67
2022/01/27 06:41:45;;;;;;;11.38;6.32;;;8.40;99.90;;;;;;5038837;28;20147;-67
2022/01/27 06:44:12;;;;;;;14.65;9.57;;;8.40;99.90;;;;;;5033446;28;20050;-63
2022/01/27 06:46:39;;;;;;;99.93;69.85;;;8.40;99.90;;;;;;5015528;28;20451;-63
2022/01/27 06:49:06;;;;;;;28.63;24.17;;;8.40;99.90;;;;;;4983551;28;1171532;-63
2022/01/27 06:51:33;;;;;;;14.60;8.10;;;8.40;99.90;;;;;;5044656;28;20046;-64
2022/01/27 06:54:00;;;;;;;8.95;6.05;;;8.40;99.90;;;;;;5017687;28;20209;-64
2022/01/27 06:56:27;;;;;;;12.82;5.82;;;8.40;99.90;;;;;;5039036;28;20053;-65
2022/01/27 06:58:54;;;;;;;6.15;4.50;;;8.40;99.90;;;;;;5034203;28;20405;-67
2022/01/27 07:01:21;;;;;;;11.25;5.70;;;8.40;99.90;;;;;;5036638;28;20061;-64
2022/01/27 07:03:49;;;;;;;10.25;6.00;;;8.40;99.90;;;;;;5013071;28;20042;-67
2022/01/27 07:06:17;;;;;;;15.65;9.80;;;8.40;99.90;;;;;;5015366;28;20068;-64
2022/01/27 07:08:44;;;;;;;17.38;8.60;;;8.40;99.90;;;;;;5022591;28;20053;-67
2022/01/27 07:11:11;;;;;;;35.92;28.45;;;8.50;99.90;;;;;;5017195;28;20132;-63
2022/01/27 07:13:40;;;;;;;11.73;6.15;;;8.50;99.90;;;;;;5034905;28;20053;-64
2022/01/27 07:16:08;;;;;;;10.52;8.48;;;8.50;99.90;;;;;;5051787;28;20060;-63
2022/01/27 07:18:36;;;;;;;10.23;5.53;;;8.50;99.90;;;;;;5018903;28;20051;-64
2022/01/27 07:21:03;;;;;;;8.85;5.53;;;8.50;99.90;;;;;;5040559;28;20076;-64
2022/01/27 07:23:30;;;;;;;10.13;5.13;;;8.50;99.90;;;;;;5045098;28;20055;-63
2022/01/27 07:25:57;;;;;;;11.55;5.50;;;8.50;99.90;;;;;;5017426;28;20046;-63
2022/01/27 07:28:24;;;;;;;9.07;4.65;;;8.50;99.90;;;;;;5022876;28;20080;-64
2022/01/27 07:30:51;;;;;;;9.80;5.65;;;8.50;99.90;;;;;;5020093;28;20088;-64
2022/01/27 07:33:18;;;;;;;10.38;5.57;;;8.50;99.90;;;;;;4998851;28;20054;-63
2022/01/27 07:35:45;;;;;;;9.35;5.45;;;8.50;99.90;;;;;;5019160;28;20050;-64
2022/01/27 07:38:12;;;;;;;8.00;5.32;;;8.50;99.90;;;;;;5017816;28;20049;-64
2022/01/27 07:40:39;;;;;;;9.43;5.47;;;8.50;99.90;;;;;;5032461;28;20380;-64
2022/01/27 07:43:14;;;;;;;8.57;5.10;;;8.50;99.90;;;;;;5032645;28;20125;-65
2022/01/27 07:45:41;;;;;;;9.48;5.10;;;8.60;99.90;;;;;;5032736;28;20465;-63
2022/01/27 07:48:08;;;;;;;12.73;5.25;;;8.60;99.90;;;;;;5014831;28;20476;-70
2022/01/27 07:50:35;;;;;;;9.98;6.18;;;8.60;99.90;;;;;;5019158;28;20538;-65
2022/01/27 07:53:02;;;;;;;8.30;5.72;;;8.60;99.90;;;;;;5024596;28;20042;-66
2022/01/27 07:55:29;;;;;;;8.20;5.05;;;8.60;99.90;;;;;;5023743;28;20064;-65
2022/01/27 07:57:56;;;;;;;9.15;4.97;;;8.60;99.90;;;;;;5032647;28;20129;-66
2022/01/27 08:00:23;;;;;;;8.52;4.53;;;8.60;99.90;;;;;;5030540;28;20064;-77
2022/01/27 08:02:50;;;;;;;11.02;4.82;;;8.70;99.90;;;;;;5018571;28;20045;-69
2022/01/27 08:05:17;;;;;;;10.10;5.60;;;8.70;99.90;;;;;;5031478;28;20042;-65
2022/01/27 08:07:44;;;;;;;7.47;5.40;;;8.70;99.90;;;;;;5017261;28;20048;-66
2022/01/27 08:10:11;;;;;;;9.00;5.38;;;8.70;99.90;;;;;;5032676;28;20103;-65
2022/01/27 08:12:41;;;;;;;9.00;4.78;;;8.70;99.90;;;;;;5003444;28;20051;-66
2022/01/27 08:15:11;;;;;;;14.70;6.40;;;8.70;99.90;;;;;;5031629;28;20053;-67
2022/01/27 08:17:38;;;;;;;;;;;8.70;99.90;;;;;;5032966;28;20132;-67
2022/01/27 08:20:06;;;;;;;7.35;4.55;;;8.80;99.90;;;;;;5022829;28;19951;-66
2022/01/27 08:22:37;;;;;;;9.27;5.70;;;8.80;99.90;;;;;;5032732;28;20038;-66
2022/01/27 08:25:04;;;;;;;7.93;5.18;;;8.80;99.90;;;;;;5017534;28;20041;-67
2022/01/27 08:27:32;;;;;;;9.90;5.55;;;8.80;99.90;;;;;;5019232;28;20054;-69
2022/01/27 08:30:04;;;;;;;8.55;5.53;;;8.80;99.90;;;;;;5011554;28;20049;-67
2022/01/27 08:35:37;;;;;;;7.05;5.30;;;8.80;99.90;;;;;;4940484;29;20437;-70
2022/01/27 08:38:04;;;;;;;10.63;5.60;;;8.80;99.90;;;;;;4922223;29;20062;-70
2022/01/27 08:40:31;;;;;;;26.10;16.52;;;8.90;99.90;;;;;;4990303;28;20045;-70
2022/01/27 08:43:07;;;;;;;9.95;5.47;;;8.90;99.90;;;;;;5015539;28;20455;-71
2022/01/27 08:45:35;;;;;;;8.77;5.53;;;8.90;99.90;;;;;;5032079;28;20129;-68
2022/01/27 08:48:02;;;;;;;525.85;441.77;;;9.00;99.90;;;;;;4999367;28;20060;-70
2022/01/27 08:50:29;;;;;;;49.80;41.00;;;9.00;99.90;;;;;;5008687;28;20132;-69
2022/01/27 08:52:56;;;;;;;16.75;12.35;;;9.00;99.90;;;;;;5012308;28;20406;-68
2022/01/27 08:55:23;;;;;;;11.48;8.40;;;9.00;99.90;;;;;;5011843;28;20397;-71
2022/01/27 08:57:50;;;;;;;9.30;5.95;;;9.00;99.90;;;;;;5011835;28;20521;-65
2022/01/27 09:00:19;;;;;;;7.95;5.13;;;9.00;99.90;;;;;;5011799;28;20136;-69
2022/01/27 09:03:06;;;;;;;9.65;4.97;;;9.00;99.90;;;;;;4996519;28;20049;-68
2022/01/27 09:05:33;;;;;;;6.95;5.05;;;9.10;99.90;;;;;;5015088;28;20042;-66
2022/01/27 09:08:01;;;;;;;9.80;5.18;;;9.10;99.90;;;;;;5011940;28;20064;-67
2022/01/27 09:10:31;;;;;;;7.10;3.65;;;9.10;99.90;;;;;;5011044;28;20444;-66
2022/01/27 09:13:02;;;;;;;7.47;4.80;;;9.10;99.90;;;;;;4994346;28;20049;-66
2022/01/27 09:15:29;;;;;;;8.70;4.95;;;9.10;99.90;;;;;;5027314;28;20141;-66
2022/01/27 09:17:59;;;;;;;9.70;5.38;;;9.10;99.90;;;;;;5011150;28;20096;-67
2022/01/27 09:20:26;;;;;;;8.13;4.90;;;9.10;99.90;;;;;;4994926;28;20108;-67
2022/01/27 09:22:56;;;;;;;6.80;4.18;;;9.20;99.90;;;;;;5006219;28;20043;-70
2022/01/27 09:25:30;;;;;;;7.05;4.50;;;9.20;99.90;;;;;;4994280;28;20058;-66
2022/01/27 09:27:58;;;;;;;6.63;4.60;;;9.20;99.90;;;;;;5010068;28;20049;-65
2022/01/27 09:30:25;;;;;;;14.98;10.35;;;9.30;99.90;;;;;;5009367;28;20074;-66
2022/01/27 09:32:52;;;;;;;7.07;4.53;;;9.30;99.90;;;;;;5010649;28;20054;-65
2022/01/27 09:35:19;;;;;;;7.18;4.90;;;9.30;99.90;;;;;;5010069;28;20185;-65
2022/01/27 09:37:47;;;;;;;8.70;4.22;;;9.40;99.90;;;;;;5011775;28;20046;-66
2022/01/27 09:40:15;;;;;;;9.20;4.10;;;9.40;99.90;;;;;;5010760;28;20133;-66
2022/01/27 09:42:48;;;;;;;8.65;4.75;;;9.40;99.90;;;;;;5011829;28;20084;-69
2022/01/27 09:45:15;;;;;;;7.50;4.25;;;9.40;99.90;;;;;;5010460;28;20093;-68
2022/01/27 09:47:43;;;;;;;18.98;12.77;;;9.40;99.90;;;;;;5011760;28;20085;-74
2022/01/27 09:52:37;;;;;;;10.13;6.50;;;9.50;99.90;;;;;;5010495;28;20077;-65
2022/01/27 09:55:05;;;;;;;8.25;4.45;;;9.50;99.90;;;;;;4994068;28;20050;-71
2022/01/27 09:57:32;;;;;;;11.25;4.38;;;9.50;99.90;;;;;;5011394;28;20300;-66
2022/01/27 09:59:59;;;;;;;7.70;4.60;;;9.50;99.90;;;;;;4977673;28;20050;-66
2022/01/27 10:02:26;;;;;;;9.27;4.95;;;9.50;99.90;;;;;;4993844;28;20112;-65
2022/01/27 10:04:57;;;;;;;7.47;4.35;;;9.60;99.90;;;;;;5012680;28;20046;-65
2022/01/27 10:07:31;;;;;;;8.57;4.78;;;9.60;99.90;;;;;;4997766;28;20053;-66
2022/01/27 10:10:08;;;;;;;8.52;4.85;;;9.60;99.90;;;;;;4995185;28;20058;-66
2022/01/27 10:12:41;;;;;;;9.38;5.00;;;9.60;99.90;;;;;;4995485;28;20050;-65
2022/01/27 10:15:11;;;;;;;6.00;4.30;;;9.60;99.90;;;;;;4995322;28;20046;-66
2022/01/27 10:17:40;;;;;;;;;;;9.60;99.90;;;;;;4996837;28;20041;-66
2022/01/27 10:20:15;;;;;;;7.60;4.93;;;9.60;99.90;;;;;;5017239;28;20327;-66
2022/01/27 10:22:42;;;;;;;7.85;5.05;;;9.60;99.90;;;;;;4999947;28;20089;-71
2022/01/27 10:25:20;;;;;;;33.22;26.38;;;9.60;99.90;;;;;;5013743;28;20073;-66
2022/01/27 10:27:57;;;;;;;26.85;24.15;;;9.70;99.90;;;;;;5015253;28;20057;-66
2022/01/27 10:32:56;;;;;;;9.00;5.05;;;9.70;99.90;;;;;;5014498;28;20054;-66
2022/01/27 10:35:25;;;;;;;8.25;4.55;;;9.80;99.90;;;;;;4995738;28;20045;-67
2022/01/27 10:37:53;;;;;;;;;;;9.80;99.90;;;;;;4997517;28;20050;-69
2022/01/27 10:40:37;;;;;;;7.43;4.38;;;9.80;99.90;;;;;;5014713;28;19968;-67
2022/01/27 10:43:10;;;;;;;9.13;4.65;;;9.80;99.90;;;;;;4998396;28;20054;-67
2022/01/27 10:45:41;;;;;;;9.43;4.60;;;9.90;99.90;;;;;;5014407;28;20041;-66
2022/01/27 10:48:18;;;;;;;7.88;4.13;;;9.90;99.90;;;;;;5014284;28;20050;-66
2022/01/27 10:51:03;;;;;;;9.23;4.97;;;10.00;99.90;;;;;;5024668;28;20049;-67
2022/01/27 10:53:49;;;;;;;7.30;5.05;;;10.00;99.90;;;;;;5004430;28;20053;-66
2022/01/27 10:56:19;;;;;;;6.57;4.30;;;10.00;99.90;;;;;;5016524;28;20073;-67
2022/01/27 10:58:46;;;;;;;6.95;5.18;;;10.10;99.90;;;;;;5015794;28;20140;-67
2022/01/27 11:01:24;;;;;;;7.68;5.43;;;10.10;99.90;;;;;;5016575;28;20457;-66
2022/01/27 11:03:52;;;;;;;7.63;4.57;;;10.10;99.90;;;;;;5030118;28;20045;-66
2022/01/27 11:06:20;;;;;;;7.22;4.88;;;10.20;99.90;;;;;;5036227;28;20045;-66
2022/01/27 11:08:48;;;;;;;7.32;5.47;;;10.20;99.90;;;;;;5045224;28;20136;-53
2022/01/27 11:11:15;;;;;;;10.18;5.82;;;10.40;99.90;;;;;;5033784;28;20111;-65
2022/01/27 11:13:44;;;;;;;7.07;4.60;;;11.00;99.90;;;;;;5000018;28;20053;-70
2022/01/27 11:16:14;;;;;;;7.55;4.30;;;11.00;99.90;;;;;;5032607;28;20390;-64
2022/01/27 11:18:44;;;;;;;6.72;4.20;;;10.90;99.90;;;;;;5032967;28;20507;-70
2022/01/27 11:21:23;;;;;;;8.13;4.88;;;10.90;99.90;;;;;;5015890;28;20485;-65
2022/01/27 11:24:15;;;;;;;7.10;4.40;;;10.90;99.90;;;;;;5032825;28;20136;-65
2022/01/27 11:26:44;;;;;;;7.95;4.50;;;10.80;99.90;;;;;;5011997;28;20064;-65
2022/01/27 11:29:11;;;;;;;8.20;5.03;;;10.90;99.90;;;;;;5012452;28;20056;-65
2022/01/27 11:31:40;;;;;;;6.80;4.65;;;10.90;99.90;;;;;;5037559;28;20488;-65
2022/01/27 11:34:08;;;;;;;7.38;4.50;;;11.00;99.90;;;;;;5015492;28;20213;-68
2022/01/27 11:36:36;;;;;;;11.10;4.80;;;11.10;99.90;;;;;;5033189;28;20125;-66
2022/01/27 11:39:09;;;;;;;9.18;5.35;;;11.20;99.90;;;;;;5045617;28;20052;-67
2022/01/27 11:41:38;;;;;;;10.00;4.60;;;11.30;99.90;;;;;;5030047;28;20087;-66
2022/01/27 11:44:36;;;;;;;8.20;4.00;;;11.30;99.90;;;;;;5013538;28;20046;-68
2022/01/27 11:47:18;;;;;;;47.08;37.83;;;11.40;99.90;;;;;;5028490;28;20045;-70
2022/01/27 11:50:06;;;;;;;204.40;181.82;;;11.50;99.90;;;;;;5022874;28;20064;-67
2022/01/27 11:52:34;;;;;;;27.13;24.40;;;11.50;99.90;;;;;;5028459;28;20135;-67
2022/01/27 11:55:26;;;;;;;12.05;9.10;;;11.60;99.90;;;;;;5028216;28;20129;-72
2022/01/27 11:58:13;;;;;;;8.82;5.53;;;11.60;99.90;;;;;;5014575;28;20095;-71
2022/01/27 12:00:40;;;;;;;6.38;4.45;;;11.60;99.90;;;;;;5028009;28;20130;-70
2022/01/27 12:03:08;;;;;;;7.38;4.18;;;11.60;99.90;;;;;;5027426;28;20116;-68
2022/01/27 12:05:45;;;;;;;9.88;4.45;;;11.60;99.90;;;;;;5014507;28;20129;-69
2022/01/27 12:08:13;;;;;;;5.65;3.38;;;11.60;99.90;;;;;;5039573;28;20084;-68
2022/01/27 12:10:51;;;;;;;7.90;4.57;;;11.60;99.90;;;;;;5020472;28;20905;-68
2022/01/27 12:19:02;;;;;;;7.43;3.65;;;11.70;99.90;;;;;;5025436;28;20109;-72
2022/01/27 12:21:35;;;;;;;8.38;3.95;;;11.70;99.90;;;;;;5018558;28;20137;-67
2022/01/27 12:24:12;;;;;;;5.93;3.80;;;11.70;99.90;;;;;;5005862;28;20094;-70
2022/01/27 12:26:54;;;;;;;8.43;4.93;;;11.70;99.90;;;;;;5043485;28;20405;-70
2022/01/27 12:29:39;;;;;;;6.47;4.13;;;11.70;99.90;;;;;;5023855;28;20044;-69
2022/01/27 12:32:16;;;;;;;8.52;5.43;;;11.70;99.90;;;;;;5015453;28;20441;-68
2022/01/27 12:35:07;;;;;;;8.88;4.38;;;11.80;99.90;;;;;;5018234;28;20045;-74
2022/01/27 12:37:39;;;;;;;7.13;6.00;;;11.80;99.90;;;;;;5016627;28;20107;-68
2022/01/27 12:40:07;;;;;;;10.25;6.18;;;11.70;99.90;;;;;;5012581;28;20100;-69
2022/01/27 12:42:37;;;;;;;8.07;6.25;;;11.70;99.90;;;;;;5029474;28;20045;-65
2022/01/27 12:45:06;;;;;;;6.50;5.72;;;11.70;99.90;;;;;;5027972;28;20048;-68
2022/01/27 12:47:33;;;;;;;8.38;5.55;;;11.60;99.90;;;;;;5014974;28;20053;-67
2022/01/27 12:50:10;;;;;;;7.40;5.95;;;11.60;99.90;;;;;;5010453;28;20399;-68
2022/01/27 12:52:43;;;;;;;9.52;6.28;;;11.60;99.90;;;;;;5015152;28;20053;-70
2022/01/27 12:55:11;;;;;;;7.30;5.35;;;11.60;99.90;;;;;;5016267;28;20087;-68
2022/01/27 12:57:55;;;;;;;109.55;85.18;;;11.60;99.90;;;;;;5003488;28;20128;-66
2022/01/27 13:00:22;;;;;;;243.30;181.18;;;11.70;99.90;;;;;;5012322;28;20117;-67
2022/01/27 13:02:49;;;;;;;47.70;42.90;;;11.80;99.90;;;;;;5024185;28;20041;-67
2022/01/27 13:05:16;;;;;;;15.57;13.65;;;11.90;99.90;;;;;;5031489;28;20050;-68
2022/01/27 13:07:47;;;;;;;8.43;6.78;;;11.90;99.90;;;;;;5031025;28;20044;-69
2022/01/27 13:10:18;;;;;;;7.32;4.72;;;11.90;99.90;;;;;;5031166;28;20057;-70
2022/01/27 13:12:54;;;;;;;7.57;3.63;;;11.90;99.90;;;;;;5030877;28;20137;-70
2022/01/27 13:15:23;;;;;;;6.03;3.88;;;12.00;99.90;;;;;;5015300;28;20049;-69
2022/01/27 13:17:56;;;;;;;7.03;4.70;;;12.00;99.90;;;;;;5031935;28;20049;-68
2022/01/27 13:20:40;;;;;;;5.68;3.75;;;12.00;99.90;;;;;;5031422;28;20469;-69
2022/01/27 13:25:47;;;;;;;4.75;3.65;;;11.90;99.90;;;;;;4994943;28;20405;-68
2022/01/27 13:28:19;;;;;;;5.00;3.85;;;11.90;99.90;;;;;;4979576;28;20551;-67
2022/01/27 13:30:49;;;;;;;4.88;3.92;;;11.80;99.90;;;;;;5011823;28;20457;-68
2022/01/27 13:33:19;;;;;;;6.10;3.78;;;11.80;99.90;;;;;;4963633;28;20064;-68
2022/01/27 13:35:46;;;;;;;;;;;11.70;99.90;;;;;;4994983;28;20050;-68
2022/01/27 13:38:25;;;;;;;5.38;3.72;;;11.60;99.90;;;;;;4984008;28;19964;-69
2022/01/27 13:41:20;;;;;;;5.97;4.60;;;11.60;99.90;;;;;;5034596;28;20132;-68
2022/01/27 13:44:03;;;;;;;5.05;4.00;;;11.60;99.90;;;;;;5019802;28;20073;-69
2022/01/27 13:46:34;;;;;;;107.05;87.15;;;11.70;99.90;;;;;;5034923;28;20076;-71
2022/01/27 13:49:28;;;;;;;44.28;35.80;;;11.80;99.90;;;;;;5034779;28;20049;-71
2022/01/27 13:51:57;;;;;;;8.68;7.75;;;11.90;99.90;;;;;;5020138;28;20421;-68
2022/01/27 13:54:35;;;;;;;6.47;4.97;;;11.90;99.90;;;;;;5035224;28;20419;-68